createdAt,value
2017-03-13T00:00:49.978Z,0
2017-03-13T00:02:00.754Z,0
2017-03-13T00:03:11.161Z,0
2017-03-13T00:04:21.565Z,0
2017-03-13T00:05:32.345Z,0
2017-03-13T00:06:42.766Z,0
2017-03-13T00:07:52.783Z,0
2017-03-13T00:09:02.767Z,0
2017-03-13T00:10:13.151Z,0
2017-03-13T00:11:23.929Z,0
2017-03-13T00:12:34.334Z,0
2017-03-13T00:13:45.130Z,0
2017-03-13T00:14:55.138Z,0
2017-03-13T00:16:05.561Z,0
2017-03-13T00:17:15.929Z,0
2017-03-13T00:18:26.718Z,0
2017-03-13T00:19:37.546Z,0
2017-03-13T00:20:47.976Z,0
2017-03-13T00:21:58.754Z,0
2017-03-13T00:23:09.164Z,0
2017-03-13T00:24:20.013Z,0
2017-03-13T00:25:30.785Z,0
2017-03-13T00:26:41.592Z,0
2017-03-13T00:27:51.608Z,0
2017-03-13T00:29:02.001Z,0
2017-03-13T00:30:12.783Z,0
2017-03-13T00:31:23.582Z,0
2017-03-13T00:32:34.385Z,0
2017-03-13T00:33:44.367Z,0
2017-03-13T00:34:54.752Z,0
2017-03-13T00:36:05.562Z,0
2017-03-13T00:37:15.993Z,0
2017-03-13T00:38:26.387Z,0
2017-03-13T00:39:36.771Z,0
2017-03-13T00:40:47.199Z,0
2017-03-13T00:41:57.588Z,0
2017-03-13T00:43:08.384Z,0
2017-03-13T00:44:19.158Z,0
2017-03-13T00:45:29.937Z,0
2017-03-13T00:46:40.708Z,0
2017-03-13T00:47:51.081Z,0
2017-03-13T00:49:01.928Z,0
2017-03-13T00:50:12.362Z,0
2017-03-13T00:51:23.157Z,0
2017-03-13T00:52:33.573Z,0
2017-03-13T00:53:44.405Z,0
2017-03-13T00:54:55.226Z,0
2017-03-13T00:56:05.666Z,0
2017-03-13T00:57:16.445Z,0
2017-03-13T00:58:27.234Z,0
2017-03-13T00:59:38.070Z,0
2017-03-13T01:00:48.880Z,0
2017-03-13T01:01:59.270Z,0
2017-03-13T01:03:09.670Z,0
2017-03-13T01:04:20.425Z,0
2017-03-13T01:05:30.808Z,0
2017-03-13T01:06:41.216Z,0
2017-03-13T01:07:52.005Z,0
2017-03-13T01:09:02.813Z,0
2017-03-13T01:10:13.633Z,0
2017-03-13T01:11:24.045Z,0
2017-03-13T01:12:34.432Z,0
2017-03-13T01:13:44.843Z,0
2017-03-13T01:14:55.650Z,0
2017-03-13T01:16:05.669Z,0
2017-03-13T01:17:16.466Z,0
2017-03-13T01:18:27.266Z,0
2017-03-13T01:19:37.694Z,0
2017-03-13T01:20:48.504Z,0
2017-03-13T01:21:58.513Z,0
2017-03-13T01:23:08.893Z,0
2017-03-13T01:24:19.919Z,0
2017-03-13T01:25:30.333Z,0
2017-03-13T01:26:40.753Z,0
2017-03-13T01:27:51.577Z,0
2017-03-13T01:29:01.972Z,0
2017-03-13T01:30:12.373Z,0
2017-03-13T01:31:23.175Z,0
2017-03-13T01:32:33.982Z,0
2017-03-13T01:33:44.781Z,0
2017-03-13T01:34:55.574Z,0
2017-03-13T01:36:06.355Z,0
2017-03-13T01:37:17.139Z,0
2017-03-13T01:38:27.528Z,0
2017-03-13T01:39:38.303Z,0
2017-03-13T01:40:49.090Z,0
2017-03-13T01:41:59.893Z,0
2017-03-13T01:43:10.712Z,0
2017-03-13T01:44:21.495Z,0
2017-03-13T01:45:32.291Z,0
2017-03-13T01:46:43.077Z,0
2017-03-13T01:47:53.884Z,0
2017-03-13T01:49:04.272Z,0
2017-03-13T01:50:14.686Z,0
2017-03-13T01:51:25.487Z,0
2017-03-13T01:52:36.272Z,0
2017-03-13T01:53:47.059Z,0
2017-03-13T01:54:57.859Z,0
2017-03-13T01:56:07.877Z,0
2017-03-13T01:57:18.690Z,0
2017-03-13T01:58:29.475Z,0
2017-03-13T01:59:39.882Z,0
2017-03-13T02:00:50.287Z,0
2017-03-13T02:02:00.684Z,0
2017-03-13T02:03:11.080Z,0
2017-03-13T02:04:21.875Z,0
2017-03-13T02:05:32.652Z,0
2017-03-13T02:06:43.473Z,0
2017-03-13T02:07:54.284Z,0
2017-03-13T02:09:05.071Z,0
2017-03-13T02:10:15.492Z,0
2017-03-13T02:11:25.896Z,0
2017-03-13T02:12:36.735Z,0
2017-03-13T02:13:47.527Z,0
2017-03-13T02:14:58.320Z,0
2017-03-13T02:16:09.130Z,0
2017-03-13T02:17:19.933Z,0
2017-03-13T02:18:30.340Z,0
2017-03-13T02:19:40.727Z,0
2017-03-13T02:20:51.512Z,0
2017-03-13T02:22:02.317Z,0
2017-03-13T02:23:12.726Z,0
2017-03-13T02:24:23.506Z,0
2017-03-13T02:25:33.929Z,0
2017-03-13T02:26:44.740Z,0
2017-03-13T02:27:55.559Z,0
2017-03-13T02:29:06.358Z,0
2017-03-13T02:30:16.761Z,0
2017-03-13T02:31:26.362Z,0
2017-03-13T02:32:36.767Z,0
2017-03-13T02:33:47.160Z,0
2017-03-13T02:34:58.015Z,0
2017-03-13T02:36:08.786Z,0
2017-03-13T02:37:19.562Z,0
2017-03-13T02:38:29.943Z,0
2017-03-13T02:39:40.342Z,0
2017-03-13T02:40:50.734Z,0
2017-03-13T02:42:01.532Z,0
2017-03-13T02:43:12.306Z,0
2017-03-13T02:44:23.118Z,0
2017-03-13T02:45:33.915Z,0
2017-03-13T02:46:44.710Z,0
2017-03-13T02:47:55.490Z,0
2017-03-13T02:49:05.892Z,0
2017-03-13T02:50:16.676Z,0
2017-03-13T02:51:27.465Z,0
2017-03-13T02:52:37.856Z,0
2017-03-13T02:53:48.666Z,0
2017-03-13T02:54:59.456Z,0
2017-03-13T02:56:10.242Z,0
2017-03-13T02:57:21.070Z,0
2017-03-13T02:58:31.844Z,0
2017-03-13T02:59:42.669Z,0
2017-03-13T03:00:53.430Z,0
2017-03-13T03:32:02.938Z,0
2017-03-13T03:33:13.339Z,0
2017-03-13T03:34:24.111Z,0
2017-03-13T03:35:34.491Z,0
2017-03-13T03:36:44.864Z,0
2017-03-13T03:37:55.640Z,0
2017-03-13T03:39:06.036Z,0
2017-03-13T03:40:16.019Z,0
2017-03-13T03:41:26.775Z,0
2017-03-13T03:42:37.567Z,0
2017-03-13T03:43:48.378Z,0
2017-03-13T03:44:58.750Z,0
2017-03-13T03:46:09.145Z,0
2017-03-13T03:47:19.148Z,0
2017-03-13T03:48:29.150Z,0
2017-03-13T03:49:39.950Z,0
2017-03-13T03:50:50.745Z,0
2017-03-13T03:52:00.764Z,0
2017-03-13T03:53:11.543Z,0
2017-03-13T03:54:22.328Z,0
2017-03-13T03:55:33.126Z,0
2017-03-13T03:56:43.905Z,0
2017-03-13T03:57:54.699Z,0
2017-03-13T03:59:05.098Z,0
2017-03-13T04:00:15.874Z,0
2017-03-13T04:01:26.646Z,0
2017-03-13T04:02:37.447Z,0
2017-03-13T04:03:47.853Z,0
2017-03-13T04:04:58.299Z,0
2017-03-13T04:06:09.077Z,0
2017-03-13T04:07:19.473Z,0
2017-03-13T04:08:29.894Z,0
2017-03-13T04:09:40.336Z,0
2017-03-13T04:10:51.127Z,0
2017-03-13T04:12:01.510Z,0
2017-03-13T04:13:12.324Z,0
2017-03-13T04:14:23.142Z,0
2017-03-13T04:15:33.539Z,0
2017-03-13T04:16:43.912Z,0
2017-03-13T04:17:54.300Z,0
2017-03-13T04:19:05.092Z,0
2017-03-13T04:20:15.885Z,0
2017-03-13T04:21:26.689Z,0
2017-03-13T04:22:37.487Z,0
2017-03-13T04:23:47.885Z,0
2017-03-13T04:24:58.264Z,0
2017-03-13T04:26:09.051Z,0
2017-03-13T04:27:19.446Z,0
2017-03-13T04:28:29.832Z,0
2017-03-13T04:29:40.690Z,0
2017-03-13T04:30:51.471Z,0
2017-03-13T04:32:02.247Z,0
2017-03-13T04:33:13.027Z,0
2017-03-13T04:34:23.812Z,0
2017-03-13T04:35:34.606Z,0
2017-03-13T04:36:45.396Z,0
2017-03-13T04:37:56.174Z,0
2017-03-13T04:39:06.957Z,0
2017-03-13T04:40:17.792Z,0
2017-03-13T04:41:28.612Z,4
2017-03-13T04:42:39.394Z,4
2017-03-13T04:43:50.200Z,0
2017-03-13T04:45:00.992Z,0
2017-03-13T04:46:11.803Z,4
2017-03-13T04:47:22.187Z,4
2017-03-13T04:48:32.969Z,0
2017-03-13T04:49:43.347Z,4
2017-03-13T04:50:54.132Z,4
2017-03-13T04:52:04.920Z,8
2017-03-13T04:53:15.729Z,8
2017-03-13T04:54:26.557Z,8
2017-03-13T04:55:37.354Z,16
2017-03-13T04:56:48.155Z,16
2017-03-13T04:57:58.958Z,16
2017-03-13T04:59:09.750Z,24
2017-03-13T05:00:20.540Z,28
2017-03-13T05:01:30.959Z,36
2017-03-13T05:02:41.764Z,44
2017-03-13T05:03:52.179Z,52
2017-03-13T05:05:03.202Z,60
2017-03-13T05:06:13.642Z,72
2017-03-13T05:07:24.432Z,80
2017-03-13T05:08:34.814Z,96
2017-03-13T05:09:44.852Z,108
2017-03-13T05:10:54.841Z,124
2017-03-13T05:12:05.231Z,140
2017-03-13T05:13:15.205Z,156
2017-03-13T05:14:25.994Z,176
2017-03-13T05:15:36.372Z,196
2017-03-13T05:16:46.777Z,220
2017-03-13T05:17:57.578Z,244
2017-03-13T05:19:08.367Z,268
2017-03-13T05:20:19.152Z,292
2017-03-13T05:21:29.540Z,320
2017-03-13T05:22:39.553Z,348
2017-03-13T05:23:49.973Z,380
2017-03-13T05:25:00.365Z,412
2017-03-13T05:26:11.148Z,444
2017-03-13T05:27:21.924Z,480
2017-03-13T05:28:32.352Z,516
2017-03-13T05:29:43.148Z,552
2017-03-13T05:30:53.535Z,592
2017-03-13T05:32:03.540Z,628
2017-03-13T05:33:13.944Z,668
2017-03-13T05:34:24.329Z,708
2017-03-13T05:35:35.101Z,752
2017-03-13T05:36:45.485Z,792
2017-03-13T05:37:56.328Z,840
2017-03-13T05:39:06.732Z,888
2017-03-13T05:40:17.546Z,928
2017-03-13T05:41:28.321Z,976
2017-03-13T05:42:39.150Z,1024
2017-03-13T05:43:49.948Z,1068
2017-03-13T05:45:00.753Z,1116
2017-03-13T05:46:11.192Z,1164
2017-03-13T05:47:21.999Z,1212
2017-03-13T05:48:32.419Z,1260
2017-03-13T05:49:43.206Z,1308
2017-03-13T05:50:53.998Z,1352
2017-03-13T05:52:04.790Z,1396
2017-03-13T05:53:15.567Z,1448
2017-03-13T05:54:26.375Z,1496
2017-03-13T05:55:37.181Z,1544
2017-03-13T05:56:47.963Z,1592
2017-03-13T05:57:58.377Z,1636
2017-03-13T05:59:08.007Z,1684
2017-03-13T06:00:18.805Z,1736
2017-03-13T06:01:29.210Z,1780
2017-03-13T06:02:39.271Z,1828
2017-03-13T06:03:49.678Z,1876
2017-03-13T06:05:00.484Z,1928
2017-03-13T06:06:10.908Z,1980
2017-03-13T06:07:21.676Z,2032
2017-03-13T06:08:32.105Z,2080
2017-03-13T06:09:42.487Z,2124
2017-03-13T06:10:53.273Z,2172
2017-03-13T06:12:04.082Z,2220
2017-03-13T06:13:14.881Z,2260
2017-03-13T06:14:25.250Z,2300
2017-03-13T06:15:35.647Z,2340
2017-03-13T06:16:46.419Z,2388
2017-03-13T06:17:57.233Z,2436
2017-03-13T06:19:08.046Z,2484
2017-03-13T06:20:18.893Z,2528
2017-03-13T06:21:29.296Z,2572
2017-03-13T06:22:39.692Z,2608
2017-03-13T06:23:50.477Z,2644
2017-03-13T06:25:00.899Z,2684
2017-03-13T06:26:11.719Z,2732
2017-03-13T06:27:22.523Z,2776
2017-03-13T06:28:32.929Z,2812
2017-03-13T06:29:43.305Z,2848
2017-03-13T06:30:54.136Z,2868
2017-03-13T06:32:04.946Z,2928
2017-03-13T06:33:15.758Z,2968
2017-03-13T06:34:26.575Z,3012
2017-03-13T06:35:36.988Z,3056
2017-03-13T06:36:47.837Z,3100
2017-03-13T06:37:58.654Z,3144
2017-03-13T06:39:09.430Z,3184
2017-03-13T06:40:19.847Z,3216
2017-03-13T06:41:30.648Z,3248
2017-03-13T06:42:40.656Z,3284
2017-03-13T06:43:51.453Z,3320
2017-03-13T06:45:02.265Z,3356
2017-03-13T06:46:13.069Z,3388
2017-03-13T06:47:23.891Z,3424
2017-03-13T06:48:34.721Z,3464
2017-03-13T06:49:45.510Z,3508
2017-03-13T06:50:56.292Z,3540
2017-03-13T06:52:07.101Z,3576
2017-03-13T06:53:17.500Z,3620
2017-03-13T06:54:27.524Z,3652
2017-03-13T06:55:37.927Z,3688
2017-03-13T06:56:48.333Z,3720
2017-03-13T06:57:59.193Z,3748
2017-03-13T06:59:09.982Z,3776
2017-03-13T07:00:20.387Z,3824
2017-03-13T07:01:31.190Z,3868
2017-03-13T07:02:42.004Z,3896
2017-03-13T07:03:52.399Z,3924
2017-03-13T07:05:03.204Z,3956
2017-03-13T07:06:13.847Z,3992
2017-03-13T07:07:24.749Z,4028
2017-03-13T07:08:35.537Z,4076
2017-03-13T07:09:45.950Z,4088
2017-03-13T07:10:56.360Z,4124
2017-03-13T07:12:07.152Z,4152
2017-03-13T07:13:17.939Z,4192
2017-03-13T07:14:28.786Z,4220
2017-03-13T07:15:38.777Z,4264
2017-03-13T07:16:49.203Z,4292
2017-03-13T07:17:59.982Z,4332
2017-03-13T07:19:10.798Z,4384
2017-03-13T07:20:21.599Z,4404
2017-03-13T07:21:31.999Z,4440
2017-03-13T07:22:42.778Z,4464
2017-03-13T07:23:53.811Z,4504
2017-03-13T07:25:04.623Z,4548
2017-03-13T07:26:15.408Z,4560
2017-03-13T07:27:26.232Z,4596
2017-03-13T07:28:37.049Z,4628
2017-03-13T07:29:47.842Z,4656
2017-03-13T07:30:58.216Z,4692
2017-03-13T07:32:23.102Z,4724
2017-03-13T07:33:33.494Z,4748
2017-03-13T07:34:44.280Z,4772
2017-03-13T07:35:54.280Z,4812
2017-03-13T07:37:04.274Z,4848
2017-03-13T07:38:15.057Z,4884
2017-03-13T07:39:25.490Z,4908
2017-03-13T07:40:35.905Z,4932
2017-03-13T07:41:46.697Z,4964
2017-03-13T07:42:57.479Z,4996
2017-03-13T07:44:08.279Z,5032
2017-03-13T07:45:18.651Z,5060
2017-03-13T07:46:28.694Z,5096
2017-03-13T07:47:39.090Z,5128
2017-03-13T07:48:49.863Z,5160
2017-03-13T07:50:00.687Z,5168
2017-03-13T07:51:11.066Z,5200
2017-03-13T07:52:21.047Z,5220
2017-03-13T07:53:31.434Z,5260
2017-03-13T07:54:42.234Z,5300
2017-03-13T07:55:53.013Z,5312
2017-03-13T07:57:03.429Z,5356
2017-03-13T07:58:14.241Z,5420
2017-03-13T07:59:25.023Z,5492
2017-03-13T08:00:35.829Z,5524
2017-03-13T08:01:46.630Z,5552
2017-03-13T08:02:57.427Z,5572
2017-03-13T08:04:08.228Z,5604
2017-03-13T08:05:19.026Z,5624
2017-03-13T08:06:29.428Z,5656
2017-03-13T08:07:39.839Z,5672
2017-03-13T08:08:50.260Z,5672
2017-03-13T08:10:01.058Z,5688
2017-03-13T08:11:11.848Z,5752
2017-03-13T08:12:22.633Z,5796
2017-03-13T08:13:33.473Z,5840
2017-03-13T08:14:43.885Z,5868
2017-03-13T08:15:54.670Z,5916
2017-03-13T08:17:05.443Z,5936
2017-03-13T08:18:16.226Z,5960
2017-03-13T08:19:27.044Z,5984
2017-03-13T08:20:37.470Z,6028
2017-03-13T08:21:47.932Z,6052
2017-03-13T08:22:58.742Z,6084
2017-03-13T08:24:09.142Z,6108
2017-03-13T08:25:19.955Z,6148
2017-03-13T08:26:30.342Z,6192
2017-03-13T08:27:40.731Z,6208
2017-03-13T08:28:51.509Z,6228
2017-03-13T08:30:02.317Z,6260
2017-03-13T08:31:12.697Z,6268
2017-03-13T08:32:23.485Z,6308
2017-03-13T08:33:34.266Z,6376
2017-03-13T08:34:44.674Z,6408
2017-03-13T08:35:55.465Z,6448
2017-03-13T08:37:06.261Z,6492
2017-03-13T08:38:17.056Z,6544
2017-03-13T08:39:27.450Z,6552
2017-03-13T08:40:38.239Z,6632
2017-03-13T08:41:48.639Z,6636
2017-03-13T08:42:59.439Z,6608
2017-03-13T08:44:10.244Z,6648
2017-03-13T08:45:21.049Z,6724
2017-03-13T08:46:31.832Z,6780
2017-03-13T08:47:42.232Z,6748
2017-03-13T08:48:52.661Z,6824
2017-03-13T08:50:03.073Z,6872
2017-03-13T08:51:13.470Z,6876
2017-03-13T08:52:24.258Z,6844
2017-03-13T08:53:35.075Z,6928
2017-03-13T08:54:45.473Z,6912
2017-03-13T08:55:56.264Z,6924
2017-03-13T08:57:06.675Z,6908
2017-03-13T08:58:17.498Z,6888
2017-03-13T08:59:28.283Z,6920
2017-03-13T09:00:39.106Z,6936
2017-03-13T09:01:49.917Z,6964
2017-03-13T09:03:00.698Z,7072
2017-03-13T09:04:10.694Z,7100
2017-03-13T09:05:21.484Z,7088
2017-03-13T09:06:32.311Z,7064
2017-03-13T09:07:42.710Z,7232
2017-03-13T09:08:53.521Z,7312
2017-03-13T09:10:04.323Z,7280
2017-03-13T09:11:14.730Z,7244
2017-03-13T09:12:24.733Z,7244
2017-03-13T09:13:35.545Z,7336
2017-03-13T09:14:45.971Z,7364
2017-03-13T09:15:56.770Z,7328
2017-03-13T09:17:07.586Z,7380
2017-03-13T09:18:18.377Z,7496
2017-03-13T09:19:28.384Z,7484
2017-03-13T09:20:39.201Z,7536
2017-03-13T09:21:50.018Z,7520
2017-03-13T09:23:00.832Z,7496
2017-03-13T09:24:11.646Z,7592
2017-03-13T09:25:22.445Z,7640
2017-03-13T09:26:33.256Z,7632
2017-03-13T09:27:43.664Z,7616
2017-03-13T09:28:54.061Z,7688
2017-03-13T09:30:04.869Z,7732
2017-03-13T09:31:14.878Z,7728
2017-03-13T09:32:25.662Z,7760
2017-03-13T09:33:36.437Z,7848
2017-03-13T09:34:46.832Z,7864
2017-03-13T09:35:57.623Z,7784
2017-03-13T09:37:08.427Z,7816
2017-03-13T09:38:19.252Z,7804
2017-03-13T09:39:30.077Z,7924
2017-03-13T09:40:40.883Z,7936
2017-03-13T09:41:51.686Z,7920
2017-03-13T09:43:01.674Z,8036
2017-03-13T09:44:12.469Z,8080
2017-03-13T09:45:22.467Z,8092
2017-03-13T09:46:32.848Z,8140
2017-03-13T09:47:43.639Z,8088
2017-03-13T09:48:54.447Z,8112
2017-03-13T09:50:05.224Z,8236
2017-03-13T09:51:15.618Z,8148
2017-03-13T09:52:25.631Z,8160
2017-03-13T09:53:36.424Z,8172
2017-03-13T09:54:47.239Z,8224
2017-03-13T09:55:58.073Z,8308
2017-03-13T09:57:08.878Z,8100
2017-03-13T09:58:19.696Z,8216
2017-03-13T09:59:30.504Z,8228
2017-03-13T10:00:41.291Z,8196
2017-03-13T10:01:52.105Z,8156
2017-03-13T10:03:02.509Z,8360
2017-03-13T10:04:13.319Z,8424
2017-03-13T10:05:23.349Z,8288
2017-03-13T10:06:34.132Z,8192
2017-03-13T10:07:44.940Z,8424
2017-03-13T10:08:55.729Z,8548
2017-03-13T10:10:06.541Z,8432
2017-03-13T10:11:17.378Z,8256
2017-03-13T10:12:27.802Z,8364
2017-03-13T10:13:38.208Z,8556
2017-03-13T10:14:49.039Z,8452
2017-03-13T10:15:59.842Z,8556
2017-03-13T10:17:10.239Z,8492
2017-03-13T10:18:20.255Z,8252
2017-03-13T10:19:31.072Z,8604
2017-03-13T10:20:41.878Z,8600
2017-03-13T10:21:52.288Z,8480
2017-03-13T10:23:03.070Z,8616
2017-03-13T10:24:13.863Z,8660
2017-03-13T10:25:24.672Z,8540
2017-03-13T10:26:35.461Z,8448
2017-03-13T10:27:46.283Z,8680
2017-03-13T10:28:57.079Z,8780
2017-03-13T10:30:07.499Z,8704
2017-03-13T10:31:18.284Z,8648
2017-03-13T10:32:28.681Z,8608
2017-03-13T10:33:38.728Z,8776
2017-03-13T10:34:49.507Z,8796
2017-03-13T10:36:00.300Z,8740
2017-03-13T10:37:10.711Z,8600
2017-03-13T10:38:21.591Z,8512
2017-03-13T10:39:32.405Z,8604
2017-03-13T10:40:43.169Z,8852
2017-03-13T10:41:53.598Z,8848
2017-03-13T10:43:04.403Z,8856
2017-03-13T10:44:15.210Z,8860
2017-03-13T10:45:26.090Z,8892
2017-03-13T10:46:36.910Z,8976
2017-03-13T10:47:47.719Z,8836
2017-03-13T10:48:58.515Z,8908
2017-03-13T10:50:09.306Z,8888
2017-03-13T10:51:20.155Z,8772
2017-03-13T10:52:30.563Z,8700
2017-03-13T10:53:41.362Z,8636
2017-03-13T10:54:52.787Z,8856
2017-03-13T10:56:03.594Z,8680
2017-03-13T10:57:14.419Z,8964
2017-03-13T10:58:24.817Z,8588
2017-03-13T10:59:35.638Z,8580
2017-03-13T11:00:46.428Z,8692
2017-03-13T11:01:56.834Z,8632
2017-03-13T11:03:07.655Z,8908
2017-03-13T11:04:18.503Z,8824
2017-03-13T11:05:29.341Z,8884
2017-03-13T11:06:40.176Z,8504
2017-03-13T11:07:50.968Z,8912
2017-03-13T11:09:01.781Z,8920
2017-03-13T11:10:12.594Z,8600
2017-03-13T11:11:23.403Z,8856
2017-03-13T11:12:33.440Z,8896
2017-03-13T11:13:44.251Z,8824
2017-03-13T11:14:55.076Z,8800
2017-03-13T11:16:05.512Z,8680
2017-03-13T11:17:16.356Z,8708
2017-03-13T11:18:27.182Z,9064
2017-03-13T11:19:38.023Z,8744
2017-03-13T11:20:48.452Z,8928
2017-03-13T11:21:59.263Z,8924
2017-03-13T11:23:10.087Z,8924
2017-03-13T11:24:20.926Z,9052
2017-03-13T11:25:31.807Z,9080
2017-03-13T11:26:41.809Z,8892
2017-03-13T11:27:52.203Z,8296
2017-03-13T11:29:02.997Z,8740
2017-03-13T11:30:13.833Z,8860
2017-03-13T11:31:24.633Z,9080
2017-03-13T11:32:35.427Z,9328
2017-03-13T11:33:46.298Z,9216
2017-03-13T11:34:56.967Z,9124
2017-03-13T11:36:07.378Z,9140
2017-03-13T11:37:18.206Z,9144
2017-03-13T11:38:28.618Z,9180
2017-03-13T11:39:39.020Z,9136
2017-03-13T11:40:49.830Z,9008
2017-03-13T11:42:00.627Z,9040
2017-03-13T11:43:11.298Z,8976
2017-03-13T11:44:22.090Z,8964
2017-03-13T11:45:32.923Z,8916
2017-03-13T11:46:43.328Z,9124
2017-03-13T11:47:53.730Z,9060
2017-03-13T11:49:04.553Z,9088
2017-03-13T11:50:14.578Z,9220
2017-03-13T11:51:25.006Z,9252
2017-03-13T11:52:35.807Z,9068
2017-03-13T11:53:46.203Z,9092
2017-03-13T11:54:57.015Z,9176
2017-03-13T11:56:07.846Z,9164
2017-03-13T11:57:18.264Z,9176
2017-03-13T11:58:29.099Z,9196
2017-03-13T11:59:39.891Z,9156
2017-03-13T12:00:50.316Z,9216
2017-03-13T12:02:00.716Z,9372
2017-03-13T12:03:11.510Z,9300
2017-03-13T12:04:21.933Z,9144
2017-03-13T12:05:32.386Z,9168
2017-03-13T12:06:43.173Z,9380
2017-03-13T12:07:53.975Z,9452
2017-03-13T12:09:04.380Z,9276
2017-03-13T12:10:15.220Z,9368
2017-03-13T12:11:26.030Z,9480
2017-03-13T12:12:36.830Z,9296
2017-03-13T12:13:47.250Z,8864
2017-03-13T12:14:58.055Z,9160
2017-03-13T12:16:08.841Z,9372
2017-03-13T12:17:19.278Z,9284
2017-03-13T12:18:29.679Z,9132
2017-03-13T12:19:40.479Z,9256
2017-03-13T12:20:51.271Z,9352
2017-03-13T12:22:01.907Z,9324
2017-03-13T12:23:12.726Z,9444
2017-03-13T12:24:23.549Z,9420
2017-03-13T12:25:33.956Z,9600
2017-03-13T12:26:43.570Z,9592
2017-03-13T12:27:53.975Z,9464
2017-03-13T12:29:04.006Z,9348
2017-03-13T12:30:14.826Z,9264
2017-03-13T12:31:25.633Z,9324
2017-03-13T12:32:36.077Z,9320
2017-03-13T12:33:46.863Z,9400
2017-03-13T12:34:57.671Z,9532
2017-03-13T12:36:08.461Z,9680
2017-03-13T12:37:18.872Z,9672
2017-03-13T12:38:29.701Z,9600
2017-03-13T12:39:40.512Z,9468
2017-03-13T12:40:50.954Z,9448
2017-03-13T12:42:01.754Z,9352
2017-03-13T12:43:12.557Z,9332
2017-03-13T12:44:22.978Z,9292
2017-03-13T12:45:33.963Z,9288
2017-03-13T12:46:44.828Z,9232
2017-03-13T12:47:55.212Z,9156
2017-03-13T12:49:05.624Z,9072
2017-03-13T12:50:16.422Z,8988
2017-03-13T12:51:26.437Z,8984
2017-03-13T12:54:15.421Z,8828
2017-03-13T12:55:26.243Z,8760
2017-03-13T12:56:36.644Z,8620
2017-03-13T12:57:47.043Z,8676
2017-03-13T12:58:57.820Z,8720
2017-03-13T13:00:08.762Z,8564
2017-03-13T13:01:19.142Z,8580
2017-03-13T13:02:29.517Z,8508
2017-03-13T13:03:40.291Z,8476
2017-03-13T13:04:51.091Z,8392
2017-03-13T13:06:01.902Z,8424
2017-03-13T13:07:12.665Z,8400
2017-03-13T13:08:23.447Z,8492
2017-03-13T13:09:34.229Z,8368
2017-03-13T13:10:44.975Z,8376
2017-03-13T13:11:55.722Z,8352
2017-03-13T13:13:06.487Z,8356
2017-03-13T13:14:17.253Z,8308
2017-03-13T13:15:28.010Z,8380
2017-03-13T13:16:37.974Z,8324
2017-03-13T13:17:49.016Z,8216
2017-03-13T13:18:59.391Z,8304
2017-03-13T13:20:09.367Z,8088
2017-03-13T13:21:20.137Z,8100
2017-03-13T13:22:30.513Z,7984
2017-03-13T13:23:41.269Z,8052
2017-03-13T13:24:52.039Z,8136
2017-03-13T13:26:02.795Z,7972
2017-03-13T13:27:13.561Z,7936
2017-03-13T13:28:24.317Z,7856
2017-03-13T13:29:34.690Z,7816
2017-03-13T13:30:45.470Z,7820
2017-03-13T13:31:56.237Z,7772
2017-03-13T13:33:07.009Z,7832
2017-03-13T13:34:17.369Z,7788
2017-03-13T13:35:27.742Z,7824
2017-03-13T13:36:38.511Z,7796
2017-03-13T13:37:48.878Z,7712
2017-03-13T13:38:59.633Z,7712
2017-03-13T13:40:10.416Z,7676
2017-03-13T13:41:21.186Z,7644
2017-03-13T13:42:32.000Z,7580
2017-03-13T13:43:42.787Z,7600
2017-03-13T13:44:53.143Z,7584
2017-03-13T13:46:03.520Z,7512
2017-03-13T13:47:14.292Z,7344
2017-03-13T13:48:24.676Z,7496
2017-03-13T13:49:35.447Z,7408
2017-03-13T13:50:45.816Z,7364
2017-03-13T13:51:56.566Z,7184
2017-03-13T13:53:07.334Z,7224
2017-03-13T13:54:18.142Z,7200
2017-03-13T13:55:28.911Z,7260
2017-03-13T13:56:39.294Z,7116
2017-03-13T13:57:49.653Z,7168
2017-03-13T13:59:00.430Z,7124
2017-03-13T14:00:10.832Z,7096
2017-03-13T14:01:21.609Z,7060
2017-03-13T14:02:32.383Z,7112
2017-03-13T14:03:43.142Z,7064
2017-03-13T14:04:53.895Z,7016
2017-03-13T14:06:04.285Z,6956
2017-03-13T14:07:14.670Z,6880
2017-03-13T14:08:25.440Z,6824
2017-03-13T14:09:36.202Z,6824
2017-03-13T14:10:46.983Z,6848
2017-03-13T14:11:57.773Z,6784
2017-03-13T14:13:08.548Z,6716
2017-03-13T14:14:19.335Z,6720
2017-03-13T14:15:30.156Z,6716
2017-03-13T14:16:40.605Z,6672
2017-03-13T14:17:51.410Z,6668
2017-03-13T14:19:01.806Z,6636
2017-03-13T14:20:12.615Z,6648
2017-03-13T14:21:23.380Z,6592
2017-03-13T14:22:34.141Z,6556
2017-03-13T14:23:44.918Z,6452
2017-03-13T14:24:55.697Z,6448
2017-03-13T14:26:06.493Z,6436
2017-03-13T14:27:16.852Z,6412
2017-03-13T14:28:27.240Z,6380
2017-03-13T14:29:38.030Z,6380
2017-03-13T14:30:48.803Z,6356
2017-03-13T14:31:59.582Z,6304
2017-03-13T14:33:10.343Z,6284
2017-03-13T14:34:20.337Z,6252
2017-03-13T14:35:30.714Z,6272
2017-03-13T14:36:41.483Z,6224
2017-03-13T14:37:51.857Z,6236
2017-03-13T14:39:02.651Z,6224
2017-03-13T14:40:13.409Z,6188
2017-03-13T14:41:23.790Z,6132
2017-03-13T14:42:34.552Z,6020
2017-03-13T14:43:45.578Z,6100
2017-03-13T14:44:55.947Z,6068
2017-03-13T14:46:06.707Z,6008
2017-03-13T14:47:17.092Z,5864
2017-03-13T14:48:27.898Z,5768
2017-03-13T14:49:38.269Z,5536
2017-03-13T14:50:49.040Z,4072
2017-03-13T14:51:59.448Z,4272
2017-03-13T14:53:10.212Z,4544
2017-03-13T14:54:20.991Z,5644
2017-03-13T14:55:31.764Z,5672
2017-03-13T14:56:42.545Z,5680
2017-03-13T14:57:53.306Z,5352
2017-03-13T14:59:04.081Z,5100
2017-03-13T15:00:14.860Z,4940
2017-03-13T15:01:25.651Z,4144
2017-03-13T15:02:36.432Z,3896
2017-03-13T15:03:46.796Z,4196
2017-03-13T15:04:57.565Z,4644
2017-03-13T15:06:08.340Z,5020
2017-03-13T15:07:18.716Z,5376
2017-03-13T15:08:29.482Z,5480
2017-03-13T15:09:40.256Z,5480
2017-03-13T15:10:51.049Z,5488
2017-03-13T15:12:01.821Z,5440
2017-03-13T15:13:12.592Z,5380
2017-03-13T15:14:23.405Z,5296
2017-03-13T15:15:33.823Z,5212
2017-03-13T15:16:44.617Z,5072
2017-03-13T15:17:55.396Z,5008
2017-03-13T15:19:05.812Z,5056
2017-03-13T15:20:16.593Z,4500
2017-03-13T15:21:26.600Z,4552
2017-03-13T15:22:37.380Z,3988
2017-03-13T15:23:48.131Z,3608
2017-03-13T15:24:58.915Z,3936
2017-03-13T15:26:09.684Z,3720
2017-03-13T15:27:20.458Z,3364
2017-03-13T15:28:30.455Z,3608
2017-03-13T15:29:41.223Z,3888
2017-03-13T15:30:51.982Z,3816
2017-03-13T15:32:02.765Z,3616
2017-03-13T15:33:13.527Z,3608
2017-03-13T15:34:23.517Z,3772
2017-03-13T15:35:34.317Z,3684
2017-03-13T15:36:45.111Z,3532
2017-03-13T15:37:55.874Z,3448
2017-03-13T15:39:05.848Z,3312
2017-03-13T15:40:16.453Z,3172
2017-03-13T15:41:26.997Z,3056
2017-03-13T15:42:38.069Z,2852
2017-03-13T15:43:48.826Z,2700
2017-03-13T15:44:59.636Z,2576
2017-03-13T15:46:10.406Z,2480
2017-03-13T15:47:21.172Z,2400
2017-03-13T15:48:31.539Z,2348
2017-03-13T15:49:41.928Z,2264
2017-03-13T15:50:52.688Z,2212
2017-03-13T15:52:03.051Z,2136
2017-03-13T15:53:13.425Z,2064
2017-03-13T15:54:24.178Z,2000
2017-03-13T15:55:34.924Z,1940
2017-03-13T15:56:45.702Z,1876
2017-03-13T15:57:55.672Z,1808
2017-03-13T15:59:06.439Z,1744
2017-03-13T16:00:17.215Z,1680
2017-03-13T16:01:27.581Z,1628
2017-03-13T16:02:38.348Z,1584
2017-03-13T16:03:49.114Z,1524
2017-03-13T16:04:59.866Z,1460
2017-03-13T16:06:10.657Z,1392
2017-03-13T16:07:21.434Z,1332
2017-03-13T16:08:32.224Z,1276
2017-03-13T16:09:42.602Z,1224
2017-03-13T16:10:53.382Z,1180
2017-03-13T16:12:04.177Z,1136
2017-03-13T16:13:14.949Z,1096
2017-03-13T16:14:25.324Z,1056
2017-03-13T16:15:36.121Z,1016
2017-03-13T16:16:46.902Z,980
2017-03-13T16:17:57.735Z,948
2017-03-13T16:19:08.496Z,916
2017-03-13T16:20:19.278Z,892
2017-03-13T16:21:30.038Z,864
2017-03-13T16:22:40.798Z,840
2017-03-13T16:23:51.576Z,820
2017-03-13T16:25:02.355Z,824
2017-03-13T16:26:12.960Z,812
2017-03-13T16:27:23.324Z,812
2017-03-13T16:28:34.117Z,808
2017-03-13T16:29:44.909Z,784
2017-03-13T16:30:55.290Z,760
2017-03-13T16:32:05.684Z,724
2017-03-13T16:33:16.452Z,688
2017-03-13T16:34:27.239Z,652
2017-03-13T16:35:38.018Z,612
2017-03-13T16:36:48.021Z,568
2017-03-13T16:37:58.399Z,524
2017-03-13T16:39:08.768Z,488
2017-03-13T16:40:19.548Z,452
2017-03-13T16:41:30.320Z,420